Terminal Aerodrome Forecast
Issued by NWS

Home | Current Version | Previous Version | Text Only | Print | Product List | Glossary On
Versions: 1 2 3 4 5 6 7 8 9 10 11 12 13 14 15 16 17 18 19 20 21 22 23 24 25 26 27
000
FTUS45 KLKN 280538
TAFEKO
TAF
KEKO 280538Z 2806/2906 VRB06KT P6SM SCT200
     FM282000 24010G20KT P6SM SCT200
     FM290200 26009KT P6SM BKN200=

USA.gov is the U.S. government's official web portal to all federal, state and local government web resources and services.